createdAt,value
2022-08-04T00:01:43.752Z,4.73
2022-08-04T00:04:20.994Z,4.60
2022-08-04T00:07:02.670Z,4.90
2022-08-04T00:09:45.719Z,5.60
2022-08-04T00:12:18.857Z,4.13
2022-08-04T00:14:53.228Z,4.70
2022-08-04T00:17:26.787Z,4.50
2022-08-04T00:20:02.285Z,4.83
2022-08-04T00:22:34.302Z,19.13
2022-08-04T00:25:07.962Z,11.00
2022-08-04T00:27:39.336Z,5.90
2022-08-04T00:30:11.108Z,5.03
2022-08-04T00:32:44.234Z,5.27
2022-08-04T00:35:18.033Z,4.70
2022-08-04T00:37:49.651Z,7.87
2022-08-04T00:40:34.220Z,4.93
2022-08-04T00:43:16.555Z,4.43
2022-08-04T00:46:17.937Z,5.17
2022-08-04T00:49:05.995Z,5.43
2022-08-04T00:52:32.713Z,5.07
2022-08-04T00:54:55.400Z,4.00
2022-08-04T00:57:42.684Z,4.37
2022-08-04T01:00:14.774Z,4.27
2022-08-04T01:03:04.753Z,4.23
2022-08-04T01:05:48.110Z,4.20
2022-08-04T01:08:49.266Z,4.33
2022-08-04T01:11:57.479Z,4.83
2022-08-04T01:14:37.945Z,4.30
2022-08-04T01:17:23.187Z,3.77
2022-08-04T01:20:05.926Z,3.17
2022-08-04T01:23:07.053Z,3.10
2022-08-04T01:26:42.727Z,3.10
2022-08-04T01:29:14.889Z,2.53
2022-08-04T01:32:05.261Z,3.73
2022-08-04T01:37:16.135Z,3.10
2022-08-04T01:39:53.488Z,3.40
2022-08-04T01:42:31.989Z,3.73
2022-08-04T01:45:07.779Z,3.13
2022-08-04T01:47:39.574Z,3.37
2022-08-04T01:50:12.294Z,3.67
2022-08-04T01:52:50.383Z,3.07
2022-08-04T01:55:22.527Z,3.40
2022-08-04T01:57:55.298Z,3.57
2022-08-04T02:00:29.999Z,3.40
2022-08-04T02:03:00.991Z,3.40
2022-08-04T02:06:03.822Z,3.30
2022-08-04T02:08:29.424Z,3.10
2022-08-04T02:11:07.150Z,3.20
2022-08-04T02:13:50.216Z,3.27
2022-08-04T02:16:31.933Z,3.60
2022-08-04T02:19:14.782Z,3.10
2022-08-04T02:21:48.210Z,2.80
2022-08-04T02:24:21.730Z,3.10
2022-08-04T02:26:56.166Z,3.07
2022-08-04T02:29:34.820Z,3.50
2022-08-04T02:32:08.966Z,3.00
2022-08-04T02:34:57.542Z,3.20
2022-08-04T02:37:29.691Z,3.70
2022-08-04T02:40:04.060Z,3.83
2022-08-04T02:42:36.089Z,3.47
2022-08-04T02:45:08.327Z,3.70
2022-08-04T02:48:29.280Z,3.20
2022-08-04T02:50:36.780Z,3.53
2022-08-04T02:53:09.814Z,3.63
2022-08-04T02:55:50.908Z,3.63
2022-08-04T02:58:24.780Z,3.40
2022-08-04T03:00:55.374Z,4.13
2022-08-04T03:03:37.194Z,3.97
2022-08-04T03:06:42.637Z,3.73
2022-08-04T03:09:44.764Z,4.00
2022-08-04T03:12:53.248Z,3.60
2022-08-04T03:15:46.627Z,3.50
2022-08-04T03:18:52.104Z,3.87
2022-08-04T03:22:00.246Z,4.40
2022-08-04T03:25:02.920Z,3.95
2022-08-04T03:28:06.291Z,3.50
2022-08-04T03:30:55.606Z,4.43
2022-08-04T03:33:56.023Z,4.20
2022-08-04T03:37:04.049Z,4.57
2022-08-04T03:40:10.748Z,4.47
2022-08-04T03:43:57.516Z,4.70
2022-08-04T03:47:03.083Z,4.50
2022-08-04T03:50:01.747Z,4.13
2022-08-04T03:53:10.562Z,4.60
2022-08-04T03:56:16.260Z,4.80
2022-08-04T03:59:18.058Z,5.97
2022-08-04T04:02:17.724Z,4.87
2022-08-04T04:05:07.235Z,4.10
2022-08-04T04:08:19.032Z,4.13
2022-08-04T04:11:26.344Z,4.47
2022-08-04T04:14:21.981Z,4.00
2022-08-04T04:17:20.239Z,3.70
2022-08-04T04:20:28.227Z,3.28
2022-08-04T04:23:12.515Z,3.63
2022-08-04T04:25:58.504Z,3.63
2022-08-04T04:29:10.092Z,4.03
2022-08-04T04:32:06.807Z,3.20
2022-08-04T04:34:49.107Z,3.70
2022-08-04T04:37:48.626Z,4.30
2022-08-04T04:40:34.440Z,3.90
2022-08-04T04:43:51.822Z,4.00
2022-08-04T04:46:30.707Z,3.57
2022-08-04T04:49:07.874Z,4.23
2022-08-04T04:51:45.605Z,3.57
2022-08-04T04:54:29.202Z,3.80
2022-08-04T04:57:12.717Z,4.07
2022-08-04T04:59:50.723Z,3.60
2022-08-04T05:02:46.333Z,4.30
2022-08-04T05:05:36.401Z,3.83
2022-08-04T05:08:43.650Z,3.10
2022-08-04T05:11:51.578Z,3.73
2022-08-04T05:14:37.448Z,4.50
2022-08-04T05:17:20.083Z,4.50
2022-08-04T05:20:02.052Z,4.07
2022-08-04T05:22:38.174Z,4.37
2022-08-04T05:25:12.883Z,4.10
2022-08-04T05:27:52.398Z,4.10
2022-08-04T05:30:25.765Z,3.97
2022-08-04T05:33:07.826Z,3.80
2022-08-04T05:36:23.469Z,4.20
2022-08-04T05:38:49.134Z,4.60
2022-08-04T05:41:19.963Z,4.83
2022-08-04T05:43:52.995Z,4.50
2022-08-04T05:46:23.718Z,4.97
2022-08-04T05:48:55.600Z,4.73
2022-08-04T05:51:27.371Z,4.83
2022-08-04T05:53:58.202Z,5.17
2022-08-04T05:56:29.937Z,5.63
2022-08-04T05:59:03.137Z,5.07
2022-08-04T06:01:55.928Z,5.57
2022-08-04T06:04:27.785Z,6.13
2022-08-04T06:06:58.834Z,5.00
2022-08-04T06:09:29.866Z,6.93
2022-08-04T06:12:04.688Z,5.60
2022-08-04T06:14:42.251Z,5.50
2022-08-04T06:18:33.490Z,5.50
2022-08-04T06:20:19.483Z,5.60
2022-08-04T06:22:56.943Z,5.87
2022-08-04T06:25:30.998Z,5.80
2022-08-04T06:28:02.605Z,5.07
2022-08-04T06:30:35.651Z,6.03
2022-08-04T06:33:14.773Z,5.17
2022-08-04T06:35:45.685Z,4.90
2022-08-04T06:38:16.562Z,5.60
2022-08-04T06:40:52.185Z,5.93
2022-08-04T06:43:24.599Z,5.43
2022-08-04T06:46:03.441Z,6.17
2022-08-04T06:48:35.217Z,5.40
2022-08-04T06:51:24.435Z,6.53
2022-08-04T06:53:56.930Z,6.13
2022-08-04T06:56:29.998Z,5.87
2022-08-04T06:59:02.646Z,6.77
2022-08-04T07:01:35.327Z,5.33
2022-08-04T07:04:06.910Z,5.23
2022-08-04T07:06:37.647Z,5.50
2022-08-04T07:09:09.635Z,4.83
2022-08-04T07:11:44.254Z,5.57
2022-08-04T07:14:15.779Z,5.53
2022-08-04T07:16:49.050Z,6.13
2022-08-04T07:19:19.651Z,5.23
2022-08-04T07:22:16.202Z,5.77
2022-08-04T07:24:44.258Z,6.40
2022-08-04T07:27:15.534Z,5.60
2022-08-04T07:29:46.126Z,6.07
2022-08-04T07:32:20.893Z,6.57
2022-08-04T07:34:52.636Z,6.00
2022-08-04T07:37:23.496Z,6.07
2022-08-04T07:40:11.163Z,7.00
2022-08-04T07:42:42.142Z,5.77
2022-08-04T07:45:13.887Z,5.93
2022-08-04T07:48:05.338Z,6.50
2022-08-04T07:50:39.202Z,6.87
2022-08-04T07:53:54.237Z,6.50
2022-08-04T07:56:01.210Z,6.33
2022-08-04T07:58:31.816Z,6.90
2022-08-04T08:01:02.721Z,6.80
2022-08-04T08:03:35.675Z,6.63
2022-08-04T08:06:31.424Z,6.07
2022-08-04T08:08:58.091Z,6.10
2022-08-04T08:12:35.824Z,6.90
2022-08-04T08:14:20.630Z,6.97
2022-08-04T08:16:52.438Z,6.73
2022-08-04T08:19:24.715Z,6.17
2022-08-04T08:21:59.231Z,7.03
2022-08-04T08:24:31.554Z,6.17
2022-08-04T08:27:02.514Z,6.27
2022-08-04T08:29:33.437Z,6.27
2022-08-04T08:32:08.468Z,6.67
2022-08-04T08:34:42.055Z,6.80
2022-08-04T08:37:20.370Z,6.20
2022-08-04T08:39:57.722Z,6.60
2022-08-04T08:42:52.870Z,6.30
2022-08-04T08:45:47.987Z,5.30
2022-08-04T08:48:43.980Z,5.23
2022-08-04T08:51:43.985Z,5.27
2022-08-04T08:54:47.032Z,6.20
2022-08-04T08:58:00.262Z,5.57
2022-08-04T09:00:41.662Z,5.77
2022-08-04T09:03:49.532Z,5.20
2022-08-04T09:07:09.177Z,5.50
2022-08-04T09:10:02.826Z,5.00
2022-08-04T09:12:42.786Z,5.67
2022-08-04T09:15:18.409Z,4.77
2022-08-04T09:17:54.057Z,6.27
2022-08-04T09:20:33.596Z,4.87
2022-08-04T09:23:16.427Z,5.30
2022-08-04T09:25:55.277Z,4.97
2022-08-04T09:28:52.274Z,5.10
2022-08-04T09:31:23.668Z,5.00
2022-08-04T09:34:07.355Z,4.57
2022-08-04T09:36:45.990Z,4.40
2022-08-04T09:39:33.533Z,5.38
2022-08-04T09:42:14.648Z,4.63
2022-08-04T09:45:04.904Z,4.67
2022-08-04T09:47:42.636Z,5.00
2022-08-04T09:50:25.324Z,4.70
2022-08-04T09:53:06.091Z,5.00
2022-08-04T09:55:54.129Z,5.20
2022-08-04T09:58:39.580Z,5.20
2022-08-04T10:01:14.405Z,4.53
2022-08-04T10:03:53.089Z,5.07
2022-08-04T10:07:03.322Z,5.07
2022-08-04T10:10:04.211Z,5.53
2022-08-04T10:12:51.169Z,5.60
2022-08-04T10:15:30.684Z,5.37
2022-08-04T10:18:18.607Z,5.80
2022-08-04T10:21:14.866Z,5.37
2022-08-04T10:24:30.757Z,6.00
2022-08-04T10:27:05.425Z,4.83
2022-08-04T10:29:47.562Z,5.87
2022-08-04T10:32:22.325Z,5.30
2022-08-04T10:35:11.526Z,5.50
2022-08-04T10:38:00.938Z,5.30
2022-08-04T10:40:41.606Z,4.90
2022-08-04T10:46:01.294Z,5.00
2022-08-04T10:48:45.759Z,6.03
2022-08-04T10:51:27.936Z,5.37
2022-08-04T10:54:05.218Z,6.13
2022-08-04T10:56:42.742Z,5.20
2022-08-04T10:59:19.822Z,5.17
2022-08-04T11:02:02.298Z,4.67
2022-08-04T11:04:40.897Z,5.43
2022-08-04T11:07:13.848Z,5.23
2022-08-04T11:09:48.684Z,4.33
2022-08-04T11:12:24.184Z,4.43
2022-08-04T11:15:01.420Z,5.10
2022-08-04T11:17:38.814Z,5.33
2022-08-04T11:20:34.714Z,5.40
2022-08-04T11:23:10.916Z,5.73
2022-08-04T11:25:53.948Z,5.10
2022-08-04T11:28:37.171Z,4.53
2022-08-04T11:31:10.763Z,5.20
2022-08-04T11:33:50.345Z,5.50
2022-08-04T11:36:31.831Z,4.80
2022-08-04T11:39:12.138Z,4.50
2022-08-04T11:41:50.144Z,5.73
2022-08-04T11:44:29.578Z,5.60
2022-08-04T11:49:56.618Z,5.50
2022-08-04T11:52:31.329Z,5.80
2022-08-04T11:55:06.440Z,6.40
2022-08-04T11:57:37.661Z,5.40
2022-08-04T12:00:12.415Z,5.20
2022-08-04T12:03:08.718Z,4.37
2022-08-04T12:05:53.565Z,4.40
2022-08-04T12:08:41.640Z,4.53
2022-08-04T12:11:24.805Z,4.37
2022-08-04T12:14:07.010Z,4.43
2022-08-04T12:16:45.366Z,4.40
2022-08-04T12:19:24.354Z,4.00
2022-08-04T12:22:02.632Z,4.50
2022-08-04T12:24:41.625Z,4.20
2022-08-04T12:27:18.832Z,4.50
2022-08-04T12:30:57.310Z,3.90
2022-08-04T12:32:53.685Z,4.63
2022-08-04T12:35:30.314Z,3.87
2022-08-04T12:38:07.907Z,3.97
2022-08-04T12:40:43.674Z,3.70
2022-08-04T12:43:20.858Z,3.50
2022-08-04T12:45:55.764Z,3.23
2022-08-04T12:48:28.278Z,3.43
2022-08-04T12:51:00.611Z,3.30
2022-08-04T12:53:50.924Z,3.43
2022-08-04T12:56:29.355Z,3.10
2022-08-04T12:59:05.632Z,3.70
2022-08-04T13:02:09.078Z,4.43
2022-08-04T13:04:29.668Z,4.33
2022-08-04T13:07:04.060Z,5.03
2022-08-04T13:09:40.174Z,4.43
2022-08-04T13:12:16.386Z,5.27
2022-08-04T13:14:50.949Z,4.97
2022-08-04T13:17:22.455Z,4.50
2022-08-04T13:19:58.812Z,5.17
2022-08-04T13:22:30.569Z,5.20
2022-08-04T13:26:40.516Z,4.97
2022-08-04T13:27:57.885Z,4.90
2022-08-04T13:30:30.032Z,5.43
2022-08-04T13:33:03.259Z,5.40
2022-08-04T13:35:54.643Z,4.30
2022-08-04T13:38:28.472Z,4.77
2022-08-04T13:41:05.225Z,5.00
2022-08-04T13:44:18.948Z,4.90
2022-08-04T13:46:38.049Z,4.90
2022-08-04T13:52:11.181Z,4.73
2022-08-04T13:54:44.805Z,4.68
2022-08-04T13:57:21.535Z,4.53
2022-08-04T13:59:56.562Z,4.63
2022-08-04T14:02:37.289Z,5.10
2022-08-04T14:05:18.183Z,5.20
2022-08-04T14:07:53.580Z,5.10
2022-08-04T14:10:25.758Z,4.90
2022-08-04T14:12:58.267Z,5.30
2022-08-04T14:16:01.305Z,5.23
2022-08-04T14:18:30.994Z,5.27
2022-08-04T14:21:03.239Z,5.17
2022-08-04T14:23:46.937Z,5.07
2022-08-04T14:26:21.093Z,5.60
2022-08-04T14:29:28.506Z,5.77
2022-08-04T14:32:12.509Z,5.70
2022-08-04T14:34:46.693Z,5.70
2022-08-04T14:37:20.880Z,4.70
2022-08-04T14:40:08.661Z,6.00
2022-08-04T14:42:55.830Z,5.00
2022-08-04T14:45:39.851Z,4.93
2022-08-04T14:48:27.058Z,5.20
2022-08-04T14:50:57.971Z,5.17
2022-08-04T14:53:30.253Z,5.37
2022-08-04T14:56:02.629Z,5.10
2022-08-04T14:58:39.403Z,5.43
2022-08-04T15:01:16.016Z,5.57
2022-08-04T15:03:52.418Z,5.27
2022-08-04T15:06:26.497Z,6.30
2022-08-04T15:08:59.020Z,5.87
2022-08-04T15:11:30.594Z,5.77
2022-08-04T15:14:01.569Z,6.30
2022-08-04T15:16:35.043Z,7.17
2022-08-04T15:19:05.676Z,6.47
2022-08-04T15:21:36.752Z,6.07
2022-08-04T15:24:08.258Z,6.70
2022-08-04T15:26:44.623Z,6.93
2022-08-04T15:29:19.809Z,6.63
2022-08-04T15:32:06.395Z,7.40
2022-08-04T15:34:49.919Z,6.18
2022-08-04T15:37:28.351Z,6.13
2022-08-04T15:40:03.622Z,6.13
2022-08-04T15:42:38.615Z,6.80
2022-08-04T15:45:22.464Z,5.77
2022-08-04T15:48:34.006Z,6.33
2022-08-04T15:51:14.319Z,6.67
2022-08-04T15:54:28.013Z,5.67
2022-08-04T15:57:03.907Z,5.73
2022-08-04T16:00:08.651Z,5.97
2022-08-04T16:02:44.567Z,6.03
2022-08-04T16:05:43.718Z,6.50
2022-08-04T16:08:18.314Z,5.55
2022-08-04T16:10:51.629Z,6.17
2022-08-04T16:13:24.450Z,6.50
2022-08-04T16:16:03.293Z,5.83
2022-08-04T16:18:44.491Z,5.93
2022-08-04T16:21:25.451Z,5.67
2022-08-04T16:24:20.537Z,5.63
2022-08-04T16:26:57.166Z,6.20
2022-08-04T16:29:41.466Z,7.03
2022-08-04T16:32:19.715Z,5.90
2022-08-04T16:35:00.576Z,6.77
2022-08-04T16:37:39.234Z,6.00
2022-08-04T16:40:41.869Z,7.07
2022-08-04T16:43:14.070Z,6.50
2022-08-04T16:45:47.488Z,6.33
2022-08-04T16:48:19.052Z,5.77
2022-08-04T16:50:55.211Z,5.90
2022-08-04T16:53:53.007Z,6.67
2022-08-04T16:56:20.265Z,6.43
2022-08-04T16:58:54.109Z,6.00
2022-08-04T17:01:32.964Z,6.57
2022-08-04T17:04:08.888Z,6.47
2022-08-04T17:06:41.270Z,6.90
2022-08-04T17:09:15.185Z,6.47
2022-08-04T17:11:49.556Z,7.20
2022-08-04T17:14:25.667Z,6.70
2022-08-04T17:16:59.003Z,6.60
2022-08-04T17:19:29.661Z,6.60
2022-08-04T17:22:08.131Z,6.63
2022-08-04T17:24:42.182Z,6.23
2022-08-04T17:28:08.656Z,6.10
2022-08-04T17:30:05.275Z,5.70
2022-08-04T17:32:40.306Z,6.50
2022-08-04T17:35:11.559Z,5.53
2022-08-04T17:37:52.830Z,6.67
2022-08-04T17:40:25.884Z,5.87
2022-08-04T17:44:04.404Z,5.60
2022-08-04T17:46:28.678Z,5.70
2022-08-04T17:49:10.169Z,6.00
2022-08-04T17:52:02.916Z,6.33
2022-08-04T17:54:38.590Z,6.03
2022-08-04T17:57:21.284Z,7.23
2022-08-04T17:59:59.222Z,6.40
2022-08-04T18:02:32.645Z,6.83
2022-08-04T18:05:10.786Z,6.83
2022-08-04T18:08:38.029Z,6.10
2022-08-04T18:10:55.696Z,6.33
2022-08-04T18:13:28.958Z,6.40
2022-08-04T18:16:14.479Z,6.20
2022-08-04T18:19:11.785Z,6.33
2022-08-04T18:21:46.717Z,6.38
2022-08-04T18:27:29.841Z,6.87
2022-08-04T18:30:34.443Z,5.90
2022-08-04T18:33:04.488Z,6.20
2022-08-04T18:36:33.707Z,6.23
2022-08-04T18:38:36.407Z,6.60
2022-08-04T18:41:25.270Z,5.88
2022-08-04T18:43:57.601Z,5.87
2022-08-04T18:46:30.633Z,6.20
2022-08-04T18:49:03.277Z,6.77
2022-08-04T18:51:34.739Z,6.63
2022-08-04T18:54:08.386Z,6.27
2022-08-04T18:56:39.298Z,5.73
2022-08-04T18:59:29.856Z,6.13
2022-08-04T19:02:13.205Z,6.67
2022-08-04T19:04:52.223Z,6.20
2022-08-04T19:07:29.507Z,6.87
2022-08-04T19:10:23.679Z,7.03
2022-08-04T19:12:57.120Z,6.50
2022-08-04T19:15:34.381Z,6.50
2022-08-04T19:18:06.937Z,6.57
2022-08-04T19:20:39.713Z,6.70
2022-08-04T19:24:27.866Z,6.73
2022-08-04T19:26:05.554Z,6.30
2022-08-04T19:28:40.688Z,6.50
2022-08-04T19:31:17.270Z,6.70
2022-08-04T19:33:58.752Z,6.57
2022-08-04T19:36:37.171Z,7.07
2022-08-04T19:39:11.912Z,6.90
2022-08-04T19:42:06.696Z,6.60
2022-08-04T19:44:33.349Z,6.97
2022-08-04T19:48:16.688Z,7.40
2022-08-04T19:50:03.760Z,6.20
2022-08-04T19:52:51.454Z,6.23
2022-08-04T19:55:36.804Z,6.83
2022-08-04T19:58:10.465Z,7.40
2022-08-04T20:00:44.646Z,6.63
2022-08-04T20:03:22.459Z,6.95
2022-08-04T20:06:13.119Z,7.23
2022-08-04T20:08:48.625Z,7.30
2022-08-04T20:11:21.471Z,6.70
2022-08-04T20:16:42.597Z,6.70
2022-08-04T20:19:14.204Z,6.43
2022-08-04T20:21:55.069Z,6.43
2022-08-04T20:24:37.525Z,5.70
2022-08-04T20:27:16.233Z,5.63
2022-08-04T20:29:49.429Z,7.00
2022-08-04T20:32:22.376Z,6.77
2022-08-04T20:34:54.516Z,6.03
2022-08-04T20:37:54.831Z,6.27
2022-08-04T20:40:18.357Z,7.00
2022-08-04T20:42:51.372Z,6.07
2022-08-04T20:45:22.975Z,7.27
2022-08-04T20:47:54.456Z,6.57
2022-08-04T20:50:30.213Z,5.37
2022-08-04T20:53:01.384Z,6.83
2022-08-04T20:55:33.758Z,6.67
2022-08-04T20:58:27.368Z,5.70
2022-08-04T21:00:58.789Z,6.30
2022-08-04T21:03:49.647Z,6.43
2022-08-04T21:06:20.180Z,6.47
2022-08-04T21:08:56.738Z,6.27
2022-08-04T21:11:32.784Z,6.30
2022-08-04T21:14:03.722Z,6.70
2022-08-04T21:16:55.588Z,6.53
2022-08-04T21:19:27.311Z,7.07
2022-08-04T21:21:58.366Z,7.43
2022-08-04T21:24:29.908Z,6.47
2022-08-04T21:27:02.678Z,6.20
2022-08-04T21:29:36.747Z,6.07
2022-08-04T21:32:09.450Z,6.43
2022-08-04T21:34:40.718Z,5.97
2022-08-04T21:37:13.622Z,7.27
2022-08-04T21:39:50.682Z,8.87
2022-08-04T21:42:31.265Z,7.80
2022-08-04T21:45:03.415Z,7.80
2022-08-04T21:47:45.983Z,7.40
2022-08-04T21:50:20.375Z,7.20
2022-08-04T21:52:51.667Z,7.10
2022-08-04T21:55:22.457Z,9.20
2022-08-04T21:57:54.960Z,7.47
2022-08-04T22:00:29.328Z,7.00
2022-08-04T22:03:03.537Z,7.70
2022-08-04T22:05:34.279Z,6.83
2022-08-04T22:08:05.295Z,7.07
2022-08-04T22:10:35.867Z,8.27
2022-08-04T22:13:08.226Z,7.63
2022-08-04T22:16:03.803Z,7.23
2022-08-04T22:18:29.571Z,7.10
2022-08-04T22:21:00.079Z,7.13
2022-08-04T22:23:45.309Z,7.93
2022-08-04T22:26:20.135Z,7.60
2022-08-04T22:29:00.683Z,7.57
2022-08-04T22:31:53.346Z,6.78
2022-08-04T22:34:30.531Z,7.40
2022-08-04T22:37:01.931Z,8.07
2022-08-04T22:39:56.199Z,8.07
2022-08-04T22:42:27.505Z,7.80
2022-08-04T22:45:04.070Z,8.80
2022-08-04T22:47:38.960Z,8.23
2022-08-04T22:50:27.493Z,6.57
2022-08-04T22:52:58.792Z,7.50
2022-08-04T22:56:07.475Z,7.13
2022-08-04T22:58:22.283Z,6.83
2022-08-04T23:01:01.102Z,6.37
2022-08-04T23:03:37.157Z,7.10
2022-08-04T23:06:10.549Z,7.00
2022-08-04T23:08:46.610Z,7.17
2022-08-04T23:11:19.212Z,7.17
2022-08-04T23:13:50.240Z,6.60
2022-08-04T23:16:24.606Z,7.37
2022-08-04T23:18:55.334Z,6.30
2022-08-04T23:21:25.912Z,7.37
2022-08-04T23:24:00.954Z,7.70
2022-08-04T23:26:33.656Z,7.60
2022-08-04T23:29:04.268Z,8.67
2022-08-04T23:31:40.915Z,9.60
2022-08-04T23:34:12.486Z,9.73
2022-08-04T23:36:43.704Z,9.50
2022-08-04T23:39:14.233Z,10.27
2022-08-04T23:41:53.633Z,10.83
2022-08-04T23:44:27.104Z,12.33
2022-08-04T23:47:07.805Z,9.07
2022-08-04T23:49:40.734Z,8.10
2022-08-04T23:52:29.434Z,8.23
2022-08-04T23:55:01.591Z,8.70
2022-08-04T23:58:05.552Z,7.77
